createdAt,value
2022-11-03T00:01:02.301Z,101226.78
2022-11-03T00:03:32.311Z,101224.69
2022-11-03T00:06:04.002Z,101226.70000000001
2022-11-03T00:08:39.220Z,101217.81
2022-11-03T00:11:09.194Z,101216.52
2022-11-03T00:13:32.207Z,101190.37
2022-11-03T00:16:02.754Z,101196.33
2022-11-03T00:18:33.188Z,101188.19
2022-11-03T00:21:05.273Z,101183.14
2022-11-03T00:23:35.304Z,101180.28
2022-11-03T00:26:03.177Z,101178.06
2022-11-03T00:28:32.806Z,101164.75
2022-11-03T00:33:32.669Z,101157.9
2022-11-03T00:36:03.510Z,101149.22
2022-11-03T00:38:33.045Z,101149.39
2022-11-03T00:41:04.069Z,101146.56999999999
2022-11-03T00:43:34.100Z,101138.69
2022-11-03T00:46:04.437Z,101135.91
2022-11-03T00:48:33.439Z,101128.03
2022-11-03T00:51:04.738Z,101127.66
2022-11-03T00:53:33.525Z,101126.76
2022-11-03T00:56:03.139Z,101130.62999999999
2022-11-03T00:58:33.102Z,101128.78
2022-11-03T01:01:04.381Z,101131.0
2022-11-03T01:03:34.149Z,101121.03
2022-11-03T01:06:15.450Z,101116.78
2022-11-03T01:08:32.522Z,101120.76
2022-11-03T01:11:15.587Z,101117.19
2022-11-03T01:13:32.143Z,101105.55
2022-11-03T01:18:32.768Z,101108.23000000001
2022-11-03T01:21:02.131Z,101110.02
2022-11-03T01:23:34.313Z,101111.49
2022-11-03T01:26:04.259Z,101109.88
2022-11-03T01:28:33.264Z,101101.06
2022-11-03T01:31:03.458Z,101097.09
2022-11-03T01:33:32.629Z,101090.5
2022-11-03T01:36:02.879Z,101079.47
2022-11-03T01:41:05.146Z,101056.78
2022-11-03T01:43:32.501Z,101059.55
2022-11-03T01:46:08.724Z,101052.36
2022-11-03T01:48:34.471Z,101056.45
2022-11-03T01:51:05.168Z,101058.77
2022-11-03T01:53:33.503Z,101060.79999999999
2022-11-03T01:56:03.140Z,101063.14
2022-11-03T02:01:03.449Z,101060.27
2022-11-03T02:03:38.149Z,101057.37000000001
2022-11-03T02:06:04.803Z,101062.36
2022-11-03T02:08:37.357Z,101059.27
2022-11-03T02:11:12.172Z,101053.98
2022-11-03T02:13:32.340Z,101055.96
2022-11-03T02:16:02.311Z,101054.96
2022-11-03T02:18:33.884Z,101057.61
2022-11-03T02:21:08.584Z,101049.65999999999
2022-11-03T02:26:02.625Z,101051.62
2022-11-03T02:28:32.627Z,101046.08
2022-11-03T02:31:11.939Z,101040.09
2022-11-03T02:33:42.038Z,101043.42
2022-11-03T02:36:10.606Z,101041.27
2022-11-03T02:41:06.182Z,101023.56
2022-11-03T02:43:32.523Z,101020.2
2022-11-03T02:46:05.037Z,101015.77
2022-11-03T02:48:32.321Z,101017.21
2022-11-03T02:51:03.515Z,101014.62
2022-11-03T02:56:09.707Z,101006.22
2022-11-03T02:58:39.864Z,100997.09
2022-11-03T03:01:13.808Z,100988.95
2022-11-03T03:03:37.573Z,100993.34999999999
2022-11-03T03:08:35.005Z,100985.5
2022-11-03T03:11:04.149Z,100989.06
2022-11-03T03:13:32.791Z,100989.72
2022-11-03T03:16:07.591Z,100988.31
2022-11-03T03:18:41.355Z,100990.84
2022-11-03T03:21:10.869Z,100991.52
2022-11-03T03:23:35.949Z,100980.97
2022-11-03T03:26:06.750Z,100981.03
2022-11-03T03:28:37.918Z,100976.22
2022-11-03T03:31:07.441Z,100968.12999999999
2022-11-03T03:33:34.219Z,100962.76000000001
2022-11-03T03:36:06.400Z,100960.39
2022-11-03T03:38:37.571Z,100970.29
2022-11-03T03:41:09.520Z,100962.13
2022-11-03T03:43:34.127Z,100949.81
2022-11-03T03:46:07.014Z,100947.67
2022-11-03T03:48:32.352Z,100945.5
2022-11-03T03:51:04.096Z,100949.42
2022-11-03T03:53:32.195Z,100955.36
2022-11-03T03:56:04.907Z,100956.62
2022-11-03T04:01:02.463Z,100956.8
2022-11-03T04:03:32.306Z,100947.40000000001
2022-11-03T04:06:02.318Z,100942.61
2022-11-03T04:08:32.385Z,100945.17
2022-11-03T04:11:12.158Z,100948.19
2022-11-03T04:13:42.717Z,100943.8
2022-11-03T04:16:12.002Z,100947.41
2022-11-03T04:18:42.167Z,100936.3
2022-11-03T04:21:12.724Z,100932.25
2022-11-03T04:23:32.191Z,100919.14
2022-11-03T04:26:10.678Z,100927.55
2022-11-03T04:28:32.373Z,100930.31
2022-11-03T04:31:02.339Z,100932.37000000001
2022-11-03T04:33:32.208Z,100928.59999999999
2022-11-03T04:36:11.572Z,100928.81
2022-11-03T04:38:33.223Z,100924.23999999999
2022-11-03T04:41:11.680Z,100925.43
2022-11-03T04:46:02.357Z,100930.51000000001
2022-11-03T04:48:33.401Z,100927.84
2022-11-03T04:51:12.613Z,100924.8
2022-11-03T04:56:14.040Z,100908.12
2022-11-03T04:58:34.934Z,100907.06999999999
2022-11-03T05:01:03.764Z,100908.34999999999
2022-11-03T05:03:34.758Z,100910.01
2022-11-03T05:06:10.875Z,100907.39
2022-11-03T05:08:32.269Z,100896.2
2022-11-03T05:11:13.945Z,100889.47
2022-11-03T05:13:32.436Z,100887.01999999999
2022-11-03T05:16:05.129Z,100881.59000000001
2022-11-03T05:18:36.053Z,100874.61
2022-11-03T05:21:05.145Z,100865.36
2022-11-03T05:28:36.975Z,100850.95
2022-11-03T05:31:17.628Z,100848.61
2022-11-03T05:33:34.801Z,100851.62
2022-11-03T05:36:11.719Z,100844.62
2022-11-03T05:38:33.383Z,100849.37999999999
2022-11-03T05:41:03.196Z,100840.7
2022-11-03T05:43:32.783Z,100840.7
2022-11-03T05:46:02.764Z,100832.53
2022-11-03T05:48:36.566Z,100829.42
2022-11-03T05:51:12.817Z,100830.94
2022-11-03T05:53:38.245Z,100839.56
2022-11-03T05:56:04.755Z,100841.78
2022-11-03T05:58:36.024Z,100839.26
2022-11-03T06:01:09.355Z,100834.31
2022-11-03T06:03:35.733Z,100826.05
2022-11-03T06:06:10.594Z,100827.68
2022-11-03T06:11:03.492Z,100824.90000000001
2022-11-03T06:13:35.513Z,100824.92
2022-11-03T06:16:04.959Z,100818.5
2022-11-03T06:18:35.378Z,100817.95
2022-11-03T06:23:33.512Z,100817.85
2022-11-03T06:28:37.647Z,100815.01
2022-11-03T06:31:04.644Z,100808.91
2022-11-03T06:33:34.492Z,100801.51
2022-11-03T06:36:12.690Z,100812.49
2022-11-03T06:38:34.499Z,100807.87
2022-11-03T06:41:02.544Z,100801.78
2022-11-03T06:43:39.051Z,100807.03
2022-11-03T06:48:34.202Z,100805.69
2022-11-03T06:51:03.468Z,100809.73
2022-11-03T06:53:32.964Z,100802.97
2022-11-03T06:56:07.252Z,100804.35
2022-11-03T06:58:36.580Z,100801.44
2022-11-03T07:01:11.466Z,100800.27
2022-11-03T07:03:36.944Z,100793.62
2022-11-03T07:06:14.305Z,100794.01000000001
2022-11-03T07:08:36.551Z,100790.48
2022-11-03T07:11:10.318Z,100788.23999999999
2022-11-03T07:13:35.016Z,100789.26
2022-11-03T07:16:02.873Z,100786.11
2022-11-03T07:18:34.762Z,100774.1
2022-11-03T07:21:06.109Z,100786.44
2022-11-03T07:23:32.355Z,100789.87
2022-11-03T07:26:02.737Z,100783.51
2022-11-03T07:28:35.885Z,100779.36
2022-11-03T07:31:16.227Z,100786.21
2022-11-03T07:33:32.264Z,100776.15
2022-11-03T07:36:15.349Z,100767.07
2022-11-03T07:38:32.828Z,100766.76999999999
2022-11-03T07:41:02.269Z,100771.59
2022-11-03T07:43:34.883Z,100775.0
2022-11-03T07:46:04.063Z,100766.33
2022-11-03T07:48:36.111Z,100766.81999999999
2022-11-03T07:51:17.515Z,100757.04
2022-11-03T07:53:38.918Z,100766.04
2022-11-03T07:56:14.655Z,100758.79
2022-11-03T07:58:35.823Z,100758.4
2022-11-03T08:03:42.699Z,100744.59000000001
2022-11-03T08:06:04.821Z,100744.28
2022-11-03T08:08:32.517Z,100741.58
2022-11-03T08:11:02.427Z,100740.89
2022-11-03T08:13:32.365Z,100733.86
2022-11-03T08:16:02.667Z,100731.7
2022-11-03T08:18:32.434Z,100726.87
2022-11-03T08:21:02.977Z,100730.31
2022-11-03T08:23:32.777Z,100728.59
2022-11-03T08:26:02.380Z,100723.61
2022-11-03T08:28:32.891Z,100720.19
2022-11-03T08:31:08.040Z,100717.31
2022-11-03T08:33:33.901Z,100711.81
2022-11-03T08:36:03.439Z,100709.16
2022-11-03T08:38:32.297Z,100702.23
2022-11-03T08:41:03.194Z,100695.36
2022-11-03T08:43:32.359Z,100698.51999999999
2022-11-03T08:46:08.370Z,100692.6
2022-11-03T08:51:02.755Z,100685.6
2022-11-03T08:53:33.150Z,100671.95
2022-11-03T08:56:02.280Z,100677.9
2022-11-03T08:58:33.885Z,100671.25
2022-11-03T09:01:02.304Z,100671.12
2022-11-03T09:03:32.454Z,100659.93999999999
2022-11-03T09:06:02.447Z,100667.26
2022-11-03T09:11:02.541Z,100666.09
2022-11-03T09:13:32.309Z,100668.52
2022-11-03T09:16:02.362Z,100663.98000000001
2022-11-03T09:18:33.224Z,100649.94
2022-11-03T09:21:02.332Z,100653.47
2022-11-03T09:23:32.453Z,100650.25
2022-11-03T09:26:02.398Z,100644.03
2022-11-03T09:28:32.338Z,100637.91
2022-11-03T09:31:02.628Z,100623.99
2022-11-03T09:33:32.332Z,100609.38
2022-11-03T09:36:02.382Z,100619.76
2022-11-03T09:38:32.437Z,100610.96
2022-11-03T09:41:09.641Z,100597.96
2022-11-03T09:43:32.286Z,100598.5
2022-11-03T09:46:02.467Z,100604.16
2022-11-03T09:51:02.676Z,100581.26999999999
2022-11-03T09:53:32.539Z,100577.63
2022-11-03T09:56:02.474Z,100567.24
2022-11-03T09:58:32.581Z,100566.92
2022-11-03T10:01:02.715Z,100569.46
2022-11-03T10:03:32.404Z,100565.81
2022-11-03T10:06:03.173Z,100560.28
2022-11-03T10:08:36.027Z,100551.68
2022-11-03T10:11:04.327Z,100558.87
2022-11-03T10:13:35.523Z,100552.62
2022-11-03T10:16:06.148Z,100552.06
2022-11-03T10:18:33.650Z,100545.78
2022-11-03T10:21:05.158Z,100539.15
2022-11-03T10:23:32.461Z,100532.39
2022-11-03T10:26:09.514Z,100537.49
2022-11-03T10:31:13.487Z,100529.04999999999
2022-11-03T10:38:34.377Z,100513.01
2022-11-03T10:41:12.905Z,100510.51
2022-11-03T10:43:32.428Z,100506.41
2022-11-03T10:46:23.399Z,100503.95999999999
2022-11-03T10:48:32.324Z,100503.99
2022-11-03T10:51:02.664Z,100494.5
2022-11-03T10:53:32.552Z,100483.31
2022-11-03T10:56:03.147Z,100489.67
2022-11-03T10:58:33.518Z,100478.09999999999
2022-11-03T11:01:03.016Z,100485.64
2022-11-03T11:03:42.095Z,100475.59
2022-11-03T11:06:02.521Z,100470.04
2022-11-03T11:08:32.560Z,100474.75
2022-11-03T11:11:05.312Z,100464.33
2022-11-03T11:13:32.338Z,100462.3
2022-11-03T11:16:02.708Z,100448.35
2022-11-03T11:18:52.149Z,100458.70999999999
2022-11-03T11:21:24.368Z,100455.44
2022-11-03T11:23:43.794Z,100452.36
2022-11-03T11:26:13.710Z,100449.11
2022-11-03T11:28:33.422Z,100442.86
2022-11-03T11:31:22.284Z,100438.85
2022-11-03T11:33:33.562Z,100435.29
2022-11-03T11:36:22.205Z,100426.06
2022-11-03T11:38:44.095Z,100425.35
2022-11-03T11:41:02.537Z,100417.98999999999
2022-11-03T11:43:32.607Z,100413.14
2022-11-03T11:46:22.353Z,100410.14
2022-11-03T11:48:33.074Z,100406.69
2022-11-03T11:51:03.479Z,100391.21
2022-11-03T11:53:37.939Z,100400.12000000001
2022-11-03T11:56:03.042Z,100380.12999999999
2022-11-03T11:58:42.173Z,100367.6
2022-11-03T12:03:37.810Z,100356.73000000001
2022-11-03T12:06:02.984Z,100350.59
2022-11-03T12:08:32.566Z,100342.33
2022-11-03T12:11:04.625Z,100327.09999999999
2022-11-03T12:13:38.742Z,100331.39
2022-11-03T12:16:02.702Z,100322.42
2022-11-03T12:18:39.208Z,100317.04
2022-11-03T12:21:04.838Z,100316.08
2022-11-03T12:23:33.703Z,100317.75
2022-11-03T12:28:33.271Z,100313.01
2022-11-03T12:31:03.478Z,100315.8
2022-11-03T12:33:32.591Z,100314.76
2022-11-03T12:36:02.668Z,100320.62
2022-11-03T12:38:32.389Z,100316.95999999999
2022-11-03T12:41:12.666Z,100312.15999999999
2022-11-03T12:43:32.352Z,100303.73
2022-11-03T12:46:02.674Z,100301.35
2022-11-03T12:48:32.514Z,100301.34000000001
2022-11-03T12:51:02.615Z,100290.81999999999
2022-11-03T12:53:32.340Z,100286.21
2022-11-03T12:56:02.724Z,100284.41
2022-11-03T13:01:04.289Z,100269.9
2022-11-03T13:03:33.785Z,100262.23999999999
2022-11-03T13:06:03.711Z,100258.62
2022-11-03T13:08:32.908Z,100252.44
2022-11-03T13:11:02.572Z,100248.85
2022-11-03T13:13:32.673Z,100245.42
2022-11-03T13:16:02.682Z,100247.1
2022-11-03T13:18:32.415Z,100243.38
2022-11-03T13:21:03.234Z,100243.64
2022-11-03T13:23:32.393Z,100234.88
2022-11-03T13:26:02.623Z,100235.82
2022-11-03T13:28:32.605Z,100231.0
2022-11-03T13:31:02.419Z,100228.23
2022-11-03T13:33:32.467Z,100223.19
2022-11-03T13:36:02.695Z,100224.65999999999
2022-11-03T13:38:32.742Z,100222.55
2022-11-03T13:41:08.325Z,100218.98
2022-11-03T13:43:32.404Z,100219.34
2022-11-03T13:46:04.259Z,100209.31
2022-11-03T13:51:03.194Z,100199.78
2022-11-03T13:56:06.844Z,100178.72
2022-11-03T14:06:02.838Z,100160.63
2022-11-03T14:08:32.408Z,100159.20999999999
2022-11-03T14:13:32.425Z,100155.44
2022-11-03T14:16:02.879Z,100148.0
2022-11-03T14:18:32.414Z,100140.31999999999
2022-11-03T14:21:02.549Z,100138.95999999999
2022-11-03T14:23:32.435Z,100139.45
2022-11-03T14:26:14.203Z,100130.48999999999
2022-11-03T14:28:32.837Z,100128.63
2022-11-03T14:31:04.457Z,100124.17
2022-11-03T14:33:32.398Z,100119.02
2022-11-03T14:36:02.796Z,100110.69
2022-11-03T14:38:32.623Z,100104.26999999999
2022-11-03T14:41:12.352Z,100093.08
2022-11-03T14:43:35.119Z,100097.75
2022-11-03T14:46:02.573Z,100105.86
2022-11-03T14:48:32.597Z,100097.34
2022-11-03T14:51:02.768Z,100098.51
2022-11-03T14:56:02.857Z,100087.22
2022-11-03T14:58:32.553Z,100089.07
2022-11-03T15:01:02.646Z,100095.06
2022-11-03T15:06:02.619Z,100075.69
2022-11-03T15:08:32.584Z,100066.64
2022-11-03T15:11:04.316Z,100043.66
2022-11-03T15:13:32.498Z,100045.4
2022-11-03T15:16:02.938Z,100054.13
2022-11-03T15:21:02.794Z,100034.92
2022-11-03T15:26:02.435Z,100038.05
2022-11-03T15:28:33.127Z,100040.41
2022-11-03T15:31:02.511Z,100039.4
2022-11-03T15:33:32.767Z,100029.86
2022-11-03T15:36:03.811Z,100033.59
2022-11-03T15:38:32.716Z,100032.11
2022-11-03T15:41:12.712Z,100036.1
2022-11-03T15:43:32.441Z,100050.98000000001
2022-11-03T15:46:02.780Z,100051.84000000001
2022-11-03T15:48:34.685Z,100046.12
2022-11-03T15:51:02.839Z,100038.65
2022-11-03T15:53:32.732Z,100041.47
2022-11-03T15:56:03.013Z,100037.13
2022-11-03T15:58:33.567Z,100021.66
2022-11-03T16:01:03.261Z,100014.53
2022-11-03T16:03:32.692Z,100009.52
2022-11-03T16:06:02.665Z,100001.64
2022-11-03T16:08:32.523Z,100002.23
2022-11-03T16:11:02.596Z,100005.06
2022-11-03T16:13:32.534Z,99995.37
2022-11-03T16:16:02.753Z,99998.65999999999
2022-11-03T16:21:03.425Z,99993.26999999999
2022-11-03T16:23:32.504Z,99988.23999999999
2022-11-03T16:26:04.695Z,99982.69
2022-11-03T16:28:32.485Z,99970.01000000001
2022-11-03T16:31:02.478Z,99962.91
2022-11-03T16:36:03.127Z,99948.1
2022-11-03T16:38:32.491Z,99948.13
2022-11-03T16:41:02.506Z,99941.11
2022-11-03T16:43:32.620Z,99939.84
2022-11-03T16:46:03.310Z,99931.68
2022-11-03T16:48:32.499Z,99929.21
2022-11-03T16:51:02.736Z,99921.63
2022-11-03T16:53:32.525Z,99919.17
2022-11-03T16:58:32.536Z,99911.77
2022-11-03T17:01:03.697Z,99912.95999999999
2022-11-03T17:03:32.773Z,99911.37999999999
2022-11-03T17:06:02.581Z,99906.88
2022-11-03T17:08:51.929Z,99903.94
2022-11-03T17:11:02.770Z,99903.86
2022-11-03T17:13:32.581Z,99897.02
2022-11-03T17:18:32.555Z,99894.55
2022-11-03T17:21:02.612Z,99897.18000000001
2022-11-03T17:23:32.523Z,99899.79
2022-11-03T17:26:02.535Z,99904.17
2022-11-03T17:28:32.520Z,99906.14
2022-11-03T17:33:33.255Z,99919.26
2022-11-03T17:36:02.795Z,99921.74
2022-11-03T17:38:32.525Z,99926.2
2022-11-03T17:43:37.146Z,99932.75
2022-11-03T17:46:02.587Z,99926.89
2022-11-03T17:48:32.751Z,99926.45
2022-11-03T17:51:04.338Z,99926.64
2022-11-03T17:53:32.953Z,99920.2
2022-11-03T17:56:29.065Z,99909.88
2022-11-03T17:58:35.031Z,99904.54999999999
2022-11-03T18:01:05.079Z,99906.31
2022-11-03T18:03:32.660Z,99910.19
2022-11-03T18:06:14.180Z,99913.75
2022-11-03T18:08:32.574Z,99908.44
2022-11-03T18:11:02.954Z,99904.31999999999
2022-11-03T18:13:34.385Z,99900.37
2022-11-03T18:16:06.477Z,99897.31
2022-11-03T18:18:35.791Z,99895.17
2022-11-03T18:21:03.761Z,99890.84
2022-11-03T18:23:33.943Z,99889.0
2022-11-03T18:26:09.243Z,99887.04000000001
2022-11-03T18:28:32.511Z,99889.21
2022-11-03T18:31:02.653Z,99884.09
2022-11-03T18:33:34.939Z,99881.48
2022-11-03T18:36:06.092Z,99878.68
2022-11-03T18:38:34.893Z,99874.55
2022-11-03T18:41:12.426Z,99868.86
2022-11-03T18:43:32.697Z,99875.87
2022-11-03T18:46:02.538Z,99869.96
2022-11-03T18:48:32.505Z,99866.36
2022-11-03T18:51:02.951Z,99857.81
2022-11-03T18:53:33.169Z,99852.98
2022-11-03T18:56:02.927Z,99850.41
2022-11-03T18:58:33.076Z,99848.05
2022-11-03T19:01:03.361Z,99838.07
2022-11-03T19:03:32.535Z,99839.11
2022-11-03T19:08:33.347Z,99832.9
2022-11-03T19:11:02.818Z,99821.57999999999
2022-11-03T19:16:12.280Z,99816.76999999999
2022-11-03T19:18:34.908Z,99815.32999999999
2022-11-03T19:23:32.573Z,99814.62
2022-11-03T19:26:02.591Z,99817.19
2022-11-03T19:28:33.362Z,99812.76000000001
2022-11-03T19:31:02.697Z,99802.47
2022-11-03T19:33:32.667Z,99805.86
2022-11-03T19:36:03.118Z,99802.84
2022-11-03T19:38:33.443Z,99799.05
2022-11-03T19:41:12.539Z,99796.77
2022-11-03T19:43:34.852Z,99789.28
2022-11-03T19:46:03.818Z,99785.44
2022-11-03T19:48:33.644Z,99781.73000000001
2022-11-03T19:51:05.244Z,99784.77
2022-11-03T19:53:33.137Z,99781.52
2022-11-03T19:56:03.387Z,99784.07999999999
2022-11-03T20:01:08.257Z,99777.94
2022-11-03T20:03:32.755Z,99776.37
2022-11-03T20:06:04.767Z,99771.33
2022-11-03T20:08:33.677Z,99773.41
2022-11-03T20:11:04.154Z,99766.79000000001
2022-11-03T20:16:04.912Z,99762.37999999999
2022-11-03T20:18:32.815Z,99762.91
2022-11-03T20:21:03.350Z,99758.95000000001
2022-11-03T20:23:34.621Z,99755.67
2022-11-03T20:26:02.610Z,99749.65
2022-11-03T20:28:35.417Z,99752.03
2022-11-03T20:31:02.864Z,99753.91
2022-11-03T20:33:33.662Z,99747.16
2022-11-03T20:36:03.574Z,99747.34
2022-11-03T20:38:32.879Z,99738.69
2022-11-03T20:41:12.251Z,99734.99
2022-11-03T20:43:36.638Z,99725.84000000001
2022-11-03T20:46:03.796Z,99725.13
2022-11-03T20:48:32.696Z,99731.03
2022-11-03T20:51:02.570Z,99734.39
2022-11-03T20:53:33.573Z,99733.79
2022-11-03T20:56:02.587Z,99732.72
2022-11-03T20:58:32.577Z,99720.26
2022-11-03T21:01:04.922Z,99715.4
2022-11-03T21:03:58.213Z,99720.31
2022-11-03T21:08:32.852Z,99722.52
2022-11-03T21:11:17.845Z,99727.55
2022-11-03T21:16:24.031Z,99727.29000000001
2022-11-03T21:18:42.760Z,99732.67
2022-11-03T21:21:02.824Z,99722.58
2022-11-03T21:23:33.402Z,99711.1
2022-11-03T21:26:02.730Z,99715.7
2022-11-03T21:28:32.675Z,99719.26
2022-11-03T21:31:02.772Z,99704.25
2022-11-03T21:33:35.122Z,99701.75
2022-11-03T21:36:03.789Z,99695.17
2022-11-03T21:38:32.699Z,99688.28
2022-11-03T21:41:16.828Z,99680.94
2022-11-03T21:43:42.369Z,99669.95
2022-11-03T21:46:03.850Z,99666.18999999999
2022-11-03T21:48:43.166Z,99674.06
2022-11-03T21:51:03.096Z,99675.58
2022-11-03T21:53:32.884Z,99677.70000000001
2022-11-03T21:58:32.735Z,99681.61
2022-11-03T22:06:06.223Z,99670.65
2022-11-03T22:08:33.302Z,99657.59000000001
2022-11-03T22:11:13.671Z,99651.31
2022-11-03T22:13:32.578Z,99652.98
2022-11-03T22:16:12.607Z,99653.44
2022-11-03T22:18:33.635Z,99661.41
2022-11-03T22:23:42.718Z,99688.04000000001
2022-11-03T22:26:12.593Z,99688.73
2022-11-03T22:28:32.800Z,99681.47
2022-11-03T22:33:42.580Z,99676.25
2022-11-03T22:36:16.179Z,99673.24
2022-11-03T22:38:42.499Z,99680.75
2022-11-03T22:41:12.462Z,99678.11
2022-11-03T22:43:42.394Z,99672.38
2022-11-03T22:46:03.750Z,99673.83
2022-11-03T22:48:33.419Z,99667.61
2022-11-03T22:51:06.043Z,99667.48999999999
2022-11-03T22:53:44.095Z,99664.37
2022-11-03T22:56:02.877Z,99658.39
2022-11-03T22:58:32.729Z,99657.46
2022-11-03T23:01:03.789Z,99645.23000000001
2022-11-03T23:03:34.224Z,99650.09
2022-11-03T23:06:04.793Z,99666.27
2022-11-03T23:08:34.352Z,99666.33
2022-11-03T23:11:05.159Z,99662.27
2022-11-03T23:16:08.435Z,99667.02
2022-11-03T23:18:42.396Z,99664.64
2022-11-03T23:21:05.790Z,99669.22
2022-11-03T23:23:43.217Z,99677.06
2022-11-03T23:26:02.793Z,99685.53
2022-11-03T23:28:32.824Z,99690.11
2022-11-03T23:31:02.712Z,99686.71
2022-11-03T23:33:32.933Z,99688.4
2022-11-03T23:36:03.302Z,99694.19
2022-11-03T23:38:33.462Z,99696.04000000001
2022-11-03T23:41:04.151Z,99701.47
2022-11-03T23:43:32.682Z,99704.21
2022-11-03T23:46:12.808Z,99709.01
2022-11-03T23:48:42.528Z,99713.01
2022-11-03T23:51:03.177Z,99723.28
2022-11-03T23:53:32.864Z,99727.91
2022-11-03T23:58:32.845Z,99729.63
